Time;durP1;ratioP1;P1;durP2;ratioP2;P2;SDS_P1;SDS_P2;PMS_P1;PMS_P2;Temp;Humidity;BMP_temperature;BMP_pressure;BME280_temperature;BME280_humidity;BME280_pressure;Samples;Min_cycle;Max_cycle;Signal;HPM_P1;HPM_P2
2022/12/23 00:02:42;;;;;;;7.28;0.98;;;;;;;18.81;41.53;100306.75;16129908;19;130702;-58
2022/12/23 00:08:05;;;;;;;7.60;1.60;;;;;;;18.79;41.38;100300.66;16134257;19;129486;-59
2022/12/23 00:19:07;;;;;;;6.13;1.02;;;;;;;18.72;41.40;100315.53;16135076;19;129789;-58
2022/12/23 00:24:28;;;;;;;4.32;1.00;;;;;;;18.68;41.36;100331.03;16133380;19;129695;-59
2022/12/23 00:29:50;;;;;;;4.30;1.23;;;;;;;18.65;41.56;100339.84;16133878;19;130453;-58
2022/12/23 00:35:12;;;;;;;5.95;1.00;;;;;;;18.64;41.19;100342.91;16135104;19;129520;-58
2022/12/23 00:46:14;;;;;;;2.78;1.38;;;;;;;18.59;41.62;100343.66;16128957;19;129583;-59
2022/12/23 00:51:36;;;;;;;3.55;0.90;;;;;;;18.57;41.18;100345.88;16131207;19;129602;-59
2022/12/23 00:56:58;;;;;;;1.83;0.57;;;;;;;18.55;41.41;100359.97;16131881;19;129370;-59
2022/12/23 01:08:06;;;;;;;3.60;0.90;;;;;;;18.52;41.30;100365.19;16129046;19;129250;-57
2022/12/23 01:13:28;;;;;;;1.90;0.82;;;;;;;18.50;41.27;100373.78;16128801;19;129531;-59
2022/12/23 01:18:50;;;;;;;3.53;1.00;;;;;;;18.50;41.25;100381.22;16128950;19;129296;-58
2022/12/23 01:24:11;;;;;;;3.55;0.88;;;;;;;18.48;41.13;100383.41;16126272;19;130178;-59
2022/12/23 01:29:33;;;;;;;3.08;0.88;;;;;;;18.46;41.47;100381.75;16129187;19;129479;-58
2022/12/23 01:34:55;;;;;;;2.55;0.80;;;;;;;18.44;41.26;100385.88;16130822;19;129019;-59
2022/12/23 01:40:17;;;;;;;3.05;0.70;;;;;;;18.42;41.18;100391.69;16128042;19;133067;-59
2022/12/23 01:45:38;;;;;;;2.75;0.68;;;;;;;18.41;41.55;100395.53;16127388;19;129229;-59
2022/12/23 01:51:07;;;;;;;2.40;0.90;;;;;;;18.41;41.58;100411.31;16127940;19;129575;-59
2022/12/23 01:56:35;;;;;;;2.78;0.98;;;;;;;18.40;41.49;100416.03;16124523;19;129166;-58
2022/12/23 02:13:28;;;;;;;3.88;0.70;;;;;;;18.34;41.40;100419.78;16128638;19;134601;-59
2022/12/23 02:19:23;;;;;;;2.25;0.70;;;;;;;18.35;41.29;100437.25;16124752;19;129998;-59
2022/12/23 02:25:30;;;;;;;2.20;0.70;;;;;;;18.33;41.32;100448.59;16113847;19;129586;-59
2022/12/23 02:31:21;;;;;;;0.93;0.50;;;;;;;18.30;41.39;100458.22;16115885;19;130438;-59
2022/12/23 02:36:58;;;;;;;2.17;0.63;;;;;;;18.30;41.26;100474.00;16115633;19;129689;-58
2022/12/23 02:42:32;;;;;;;1.20;0.47;;;;;;;18.28;41.11;100481.72;16110895;19;129764;-58
2022/12/23 02:48:11;;;;;;;3.88;0.70;;;;;;;18.28;41.34;100487.28;16112950;19;129545;-59
2022/12/23 02:53:39;;;;;;;1.33;0.52;;;;;;;18.25;41.43;100490.53;16114954;19;129448;-59
2022/12/23 02:59:05;;;;;;;1.63;0.50;;;;;;;18.24;41.46;100491.63;16114356;19;130488;-59
2022/12/23 03:04:27;;;;;;;1.80;0.50;;;;;;;18.22;41.25;100496.56;16112634;19;129194;-59
2022/12/23 03:10:07;;;;;;;3.38;0.57;;;;;;;18.23;41.51;100495.50;16126698;19;131077;-58
2022/12/23 03:15:50;;;;;;;1.05;0.50;;;;;;;18.21;41.41;100497.69;16138792;19;130588;-59
2022/12/23 03:21:33;;;;;;;2.60;0.60;;;;;;;18.20;41.31;100479.41;16138827;19;129542;-59
2022/12/23 03:27:26;;;;;;;0.88;0.40;;;;;;;18.19;41.39;100480.50;16138454;19;131138;-58
2022/12/23 03:32:54;;;;;;;1.23;0.55;;;;;;;18.17;41.48;100474.38;16125625;19;129946;-59
2022/12/23 03:38:18;;;;;;;1.45;0.60;;;;;;;18.17;41.42;100471.59;16138479;19;131057;-59
2022/12/23 03:43:48;;;;;;;1.17;0.50;;;;;;;18.15;41.21;100466.34;16137236;19;134513;-59
2022/12/23 03:49:17;;;;;;;0.90;0.43;;;;;;;18.14;41.20;100459.94;16136471;19;129772;-58
2022/12/23 03:54:47;;;;;;;4.03;1.00;;;;;;;18.14;41.37;100459.94;16137926;19;129913;-58
2022/12/23 04:00:09;;;;;;;0.60;0.30;;;;;;;18.13;41.06;100468.50;16132982;19;129515;-59
2022/12/23 04:05:35;;;;;;;0.98;0.60;;;;;;;18.13;41.30;100485.13;16135954;19;129443;-58
2022/12/23 04:10:58;;;;;;;0.70;0.52;;;;;;;18.10;41.06;100497.50;16136193;19;129344;-58
2022/12/23 04:16:19;;;;;;;0.70;0.40;;;;;;;18.10;41.00;100502.22;16136219;19;133661;-58
2022/12/23 04:21:41;;;;;;;1.42;0.50;;;;;;;18.09;41.42;100500.53;16137761;19;129929;-59
2022/12/23 04:27:03;;;;;;;1.55;0.43;;;;;;;18.08;41.20;100510.81;16135705;19;129664;-59
2022/12/23 04:32:25;;;;;;;1.23;0.50;;;;;;;18.06;41.42;100501.91;16133375;19;129643;-59
2022/12/23 04:37:47;;;;;;;2.70;0.50;;;;;;;18.07;41.32;100502.72;16133012;19;129069;-59
2022/12/23 04:43:09;;;;;;;1.42;0.60;;;;;;;18.06;41.20;100496.38;16132843;19;129224;-58
2022/12/23 04:48:30;;;;;;;1.80;0.50;;;;;;;18.05;41.19;100503.00;16135737;19;129449;-59
2022/12/23 04:53:52;;;;;;;1.02;0.35;;;;;;;18.05;41.20;100489.16;16133247;19;129183;-58
2022/12/23 04:59:14;;;;;;;0.85;0.40;;;;;;;18.04;41.33;100489.38;16131136;19;130039;-59
2022/12/23 05:04:36;;;;;;;0.30;0.20;;;;;;;18.04;41.10;100503.22;16132148;19;129109;-61
2022/12/23 05:10:00;;;;;;;1.27;0.30;;;;;;;18.02;41.32;100506.25;16133031;19;129781;-59
2022/12/23 05:15:22;;;;;;;0.97;0.30;;;;;;;18.01;41.14;100518.41;16130253;19;129767;-59
2022/12/23 05:20:45;;;;;;;1.20;0.40;;;;;;;18.01;40.83;100515.66;16131901;19;129556;-58
2022/12/23 05:26:06;;;;;;;0.65;0.30;;;;;;;18.02;41.20;100520.09;16130438;19;129516;-58
2022/12/23 05:31:28;;;;;;;0.75;0.30;;;;;;;18.00;41.28;100525.03;16127537;19;129549;-59
2022/12/23 05:36:50;;;;;;;1.00;0.30;;;;;;;17.99;41.00;100520.59;16129633;19;128998;-58
2022/12/23 05:42:12;;;;;;;1.15;0.30;;;;;;;17.98;41.36;100519.78;16129465;19;129681;-58
2022/12/23 05:47:34;;;;;;;0.65;0.30;;;;;;;17.98;40.93;100516.16;16130686;19;130530;-59
2022/12/23 05:52:56;;;;;;;1.00;0.28;;;;;;;17.98;41.07;100502.31;16128673;19;129647;-59
2022/12/23 05:58:18;;;;;;;0.55;0.32;;;;;;;17.96;41.18;100488.72;16130238;19;130700;-58
2022/12/23 06:03:40;;;;;;;1.20;0.20;;;;;;;17.96;40.83;100480.44;16128879;19;129781;-59
2022/12/23 06:09:02;;;;;;;0.50;0.20;;;;;;;18.07;41.09;100464.81;16126576;19;129511;-59
2022/12/23 06:14:23;;;;;;;0.40;0.15;;;;;;;18.41;40.86;100469.47;16125927;19;130576;-59
2022/12/23 06:19:49;;;;;;;3.05;0.40;;;;;;;18.88;40.37;100484.75;16125908;19;129462;-58
2022/12/23 06:25:11;;;;;;;0.68;0.20;;;;;;;19.36;39.87;100491.41;16124470;19;130023;-59
2022/12/23 06:30:33;;;;;;;1.00;0.17;;;;;;;19.78;39.00;100480.69;16126445;19;128946;-58
2022/12/23 06:35:55;;;;;;;1.60;0.15;;;;;;;20.06;38.74;100489.84;16126151;19;129571;-58
2022/12/23 06:41:17;;;;;;;1.27;0.50;;;;;;;20.16;38.27;100506.56;16121009;19;131307;-59
2022/12/23 06:46:39;;;;;;;1.45;0.30;;;;;;;20.16;38.50;100500.16;16125278;19;129572;-59
2022/12/23 06:52:01;;;;;;;6.28;0.40;;;;;;;20.09;38.36;100505.94;16122448;19;130733;-59
2022/12/23 06:57:22;;;;;;;4.32;0.55;;;;;;;19.98;38.26;100519.72;16123188;19;130639;-59
2022/12/23 07:02:44;;;;;;;4.22;0.45;;;;;;;19.86;38.59;100513.50;16121220;19;131497;-59
2022/12/23 07:08:06;;;;;;;3.20;0.40;;;;;;;19.74;38.75;100494.28;16124363;19;129338;-59
2022/12/23 07:13:28;;;;;;;2.35;0.30;;;;;;;19.60;39.15;100491.09;16121177;19;129334;-59
2022/12/23 07:18:50;;;;;;;2.35;0.20;;;;;;;19.49;39.15;100492.94;16122952;19;130655;-59
2022/12/23 07:24:12;;;;;;;6.40;0.40;;;;;;;19.38;39.20;100503.09;16119445;19;129847;-59
2022/12/23 07:29:34;;;;;;;3.25;0.38;;;;;;;19.32;39.62;100509.66;16123737;19;129270;-59
2022/12/23 07:34:55;;;;;;;6.55;0.70;;;;;;;19.29;39.41;100490.81;16123906;19;129434;-59
2022/12/23 07:40:17;;;;;;;7.97;0.70;;;;;;;19.30;39.31;100481.38;16119033;19;131476;-59
2022/12/23 07:45:39;;;;;;;5.68;0.70;;;;;;;19.31;39.42;100471.97;16121000;19;129598;-59
2022/12/23 07:51:02;;;;;;;11.02;0.70;;;;;;;19.35;39.60;100473.09;16122269;19;129512;-59
2022/12/23 07:56:24;;;;;;;11.00;0.80;;;;;;;19.39;39.28;100481.72;16129853;19;130884;-59
2022/12/23 08:01:46;;;;;;;5.82;0.82;;;;;;;19.54;39.54;100478.28;16133891;19;129308;-59
2022/12/23 08:07:08;;;;;;;4.18;0.57;;;;;;;19.81;39.35;100499.59;16130149;19;129487;-59
2022/12/23 08:12:29;;;;;;;7.90;0.55;;;;;;;20.06;38.84;100490.66;16133832;19;129961;-59
2022/12/23 08:17:53;;;;;;;4.95;0.73;;;;;;;20.31;38.76;100482.78;16137890;19;129498;-59
2022/12/23 08:23:15;;;;;;;3.63;0.60;;;;;;;20.48;38.51;100469.50;16131808;19;130588;-59
2022/12/23 08:28:45;;;;;;;6.50;0.95;;;;;;;20.63;38.33;100465.97;16137055;19;130892;-57
2022/12/23 08:34:07;;;;;;;17.85;1.17;;;;;;;20.75;38.03;100465.75;16134415;19;130874;-62
2022/12/23 08:39:28;;;;;;;29.52;1.50;;;;;;;20.84;37.98;100461.34;16130396;19;129930;-61
2022/12/23 08:44:50;;;;;;;15.45;1.80;;;;;;;20.89;38.35;100450.25;16132088;19;129805;-61
2022/12/23 08:50:12;;;;;;;15.93;1.40;;;;;;;20.96;38.19;100443.59;16133887;19;129240;-61
2022/12/23 08:55:42;;;;;;;13.88;1.10;;;;;;;20.98;38.03;100402.44;16131295;19;129188;-61
2022/12/23 09:01:06;;;;;;;15.73;1.27;;;;;;;20.98;37.96;100375.50;16129520;19;130362;-61
2022/12/23 09:06:33;;;;;;;14.05;1.10;;;;;;;20.97;37.99;100378.53;16129305;19;129848;-61
2022/12/23 09:11:54;;;;;;;14.25;1.30;;;;;;;20.88;38.37;100370.75;16133992;19;132927;-61
2022/12/23 09:17:16;;;;;;;18.02;1.80;;;;;;;20.80;38.71;100379.59;16129488;19;129967;-58
2022/12/23 09:22:38;;;;;;;7.53;1.17;;;;;;;20.71;38.79;100400.69;16129742;19;130478;-55
2022/12/23 09:28:00;;;;;;;15.45;1.50;;;;;;;20.58;39.39;100393.69;16130804;19;129671;-57
2022/12/23 09:33:21;;;;;;;22.40;1.95;;;;;;;20.44;39.21;100388.66;16128689;19;130419;-55
2022/12/23 09:38:43;;;;;;;17.38;1.48;;;;;;;20.31;39.77;100391.09;16131251;19;130267;-58
2022/12/23 09:44:21;;;;;;;11.15;1.40;;;;;;;20.19;39.79;100391.31;16129573;19;129475;-49
2022/12/23 09:50:02;;;;;;;11.45;1.92;;;;;;;20.07;40.46;100378.47;16127385;19;129503;-48
2022/12/23 09:55:31;;;;;;;29.33;1.95;;;;;;;19.93;40.84;100349.50;16128422;19;130780;-50
2022/12/23 10:01:26;;;;;;;15.55;2.05;;;;;;;19.85;41.26;100353.59;16129839;19;130307;-49
2022/12/23 10:07:02;;;;;;;24.17;1.98;;;;;;;19.81;41.42;100341.38;16126377;19;129382;-50
2022/12/23 10:12:24;;;;;;;;;;;;;;;19.77;41.84;100329.16;16120170;19;129680;-50
2022/12/23 10:17:55;;;;;;;16.30;2.20;;;;;;;19.81;41.58;100302.53;16121710;19;129420;-53
2022/12/23 10:23:30;;;;;;;25.42;2.30;;;;;;;19.80;41.96;100295.31;16118936;19;130172;-49
2022/12/23 10:29:13;;;;;;;21.88;2.38;;;;;;;19.76;42.28;100271.97;16125323;19;129531;-49
2022/12/23 10:35:04;;;;;;;18.67;1.85;;;;;;;19.71;42.65;100263.59;16129115;19;134472;-50
2022/12/23 10:40:34;;;;;;;17.17;2.13;;;;;;;19.63;42.02;100240.81;16127302;19;129584;-49
2022/12/23 10:46:27;;;;;;;12.07;1.70;;;;;;;19.58;42.47;100210.25;16127005;19;129649;-51
2022/12/23 10:51:54;;;;;;;10.25;1.65;;;;;;;19.50;42.65;100202.47;16124590;19;129513;-49
2022/12/23 10:57:18;;;;;;;8.50;1.48;;;;;;;19.45;42.88;100191.34;16126172;19;130128;-48
2022/12/23 11:03:00;;;;;;;11.75;1.30;;;;;;;19.37;42.73;100170.53;16124156;19;129895;-49
2022/12/23 11:08:24;;;;;;;5.93;1.10;;;;;;;19.31;42.55;100155.78;16123178;19;129349;-51
2022/12/23 11:13:46;;;;;;;9.85;1.40;;;;;;;19.36;43.03;100153.03;16122272;19;130231;-48
2022/12/23 11:19:14;;;;;;;9.02;1.30;;;;;;;19.42;42.82;100144.75;16124872;19;129244;-49
2022/12/23 11:24:35;;;;;;;4.82;0.90;;;;;;;19.46;42.69;100118.09;16123774;19;129590;-49
2022/12/23 11:30:04;;;;;;;7.53;1.02;;;;;;;19.57;42.50;100108.72;16129953;19;129788;-49
2022/12/23 11:35:35;;;;;;;4.10;1.20;;;;;;;19.77;42.47;100084.91;16138195;19;130247;-49
2022/12/23 11:40:58;;;;;;;6.63;1.23;;;;;;;19.91;42.47;100080.50;16139516;19;129556;-49
2022/12/23 11:46:29;;;;;;;7.00;0.98;;;;;;;20.06;42.10;100065.00;16135729;19;134032;-49
2022/12/23 11:52:00;;;;;;;3.70;1.10;;;;;;;20.17;41.75;100050.00;16136084;19;129673;-53
2022/12/23 11:57:47;;;;;;;5.57;1.20;;;;;;;20.23;41.79;100018.31;16137274;19;130304;-51
2022/12/23 12:03:17;;;;;;;;;;;;;;;20.25;42.00;100013.34;16136423;19;129554;-49
2022/12/23 12:08:40;;;;;;;6.95;1.35;;;;;;;20.32;41.72;100034.41;16138404;19;129827;-52
2022/12/23 12:14:05;;;;;;;1.95;0.60;;;;;;;20.37;41.35;99992.75;16134779;19;129520;-52
2022/12/23 12:19:42;;;;;;;3.17;0.70;;;;;;;20.42;41.56;99978.88;16133133;19;129915;-53
2022/12/23 12:25:18;;;;;;;3.67;1.27;;;;;;;20.45;41.45;99959.69;16134259;19;129711;-48
2022/12/23 12:30:51;;;;;;;3.33;0.75;;;;;;;20.45;41.40;99939.38;16137251;19;129861;-50
2022/12/23 12:36:24;;;;;;;4.63;0.77;;;;;;;20.42;41.49;99907.47;16132118;19;130028;-49
2022/12/23 12:41:54;;;;;;;1.83;0.65;;;;;;;20.42;41.61;99889.97;16134131;19;129533;-47
2022/12/23 12:47:31;;;;;;;3.67;0.73;;;;;;;20.39;42.16;99869.13;16134207;19;129696;-49
2022/12/23 12:53:20;;;;;;;5.72;0.80;;;;;;;20.47;42.30;99867.69;16133917;19;128931;-46
2022/12/23 12:58:43;;;;;;;1.65;0.75;;;;;;;20.53;42.69;99852.69;16131657;19;131094;-47
2022/12/23 13:04:37;;;;;;;3.88;0.80;;;;;;;20.61;43.72;99865.16;16129725;19;129256;-47
2022/12/23 13:10:14;;;;;;;2.40;0.68;;;;;;;20.64;43.61;99850.66;16125075;19;130004;-49
2022/12/23 13:15:49;;;;;;;2.83;0.80;;;;;;;20.62;44.46;99838.19;16123640;19;130010;-50
2022/12/23 13:21:14;;;;;;;4.43;0.90;;;;;;;20.57;44.17;99836.28;16122223;19;130932;-50
2022/12/23 13:26:53;;;;;;;3.65;1.13;;;;;;;20.50;44.30;99846.84;16120393;19;129910;-47
2022/12/23 13:33:01;;;;;;;3.25;1.27;;;;;;;20.41;44.90;99838.31;16120798;19;134835;-48
2022/12/23 13:38:45;;;;;;;4.90;1.48;;;;;;;20.28;44.68;99839.72;16121530;19;129972;-47
2022/12/23 13:44:09;;;;;;;9.43;1.85;;;;;;;20.14;44.93;99833.97;16125696;19;130623;-51
2022/12/23 13:49:40;;;;;;;16.27;2.00;;;;;;;20.05;44.70;99841.22;16132552;19;129417;-46
2022/12/23 13:55:10;;;;;;;16.45;2.50;;;;;;;19.98;44.86;99836.75;16127456;19;129848;-53
2022/12/23 14:00:33;;;;;;;9.52;2.03;;;;;;;19.87;44.73;99846.22;16128832;19;130885;-48
2022/12/23 14:05:55;;;;;;;13.40;2.20;;;;;;;19.80;45.67;99834.59;16127684;19;129458;-49
2022/12/23 14:11:29;;;;;;;9.48;2.28;;;;;;;19.83;45.94;99851.50;16128591;19;129428;-49
2022/12/23 14:17:05;;;;;;;12.05;2.15;;;;;;;19.86;45.99;99843.75;16130957;19;133730;-49
2022/12/23 14:22:53;;;;;;;13.20;2.05;;;;;;;19.90;45.91;99851.22;16125310;19;128887;-47
2022/12/23 14:28:56;;;;;;;17.80;1.90;;;;;;;19.95;46.30;99865.06;16126589;19;130843;-48
2022/12/23 14:34:19;;;;;;;10.43;2.03;;;;;;;20.01;46.24;99870.66;16123959;19;129823;-48
2022/12/23 14:39:41;;;;;;;10.98;1.95;;;;;;;20.05;46.40;99872.56;16125600;19;130412;-49
2022/12/23 14:45:32;;;;;;;7.82;1.90;;;;;;;20.11;46.47;99868.69;16125221;19;129584;-49
2022/12/23 14:51:00;;;;;;;14.88;1.35;;;;;;;20.11;46.44;99878.94;16124783;19;129015;-47
2022/12/23 14:56:37;;;;;;;7.22;1.45;;;;;;;20.12;46.23;99886.97;16124378;19;131451;-46
2022/12/23 15:02:00;;;;;;;15.70;1.50;;;;;;;20.09;46.11;99903.38;16122814;19;129193;-47
2022/12/23 15:07:28;;;;;;;28.45;2.00;;;;;;;20.07;46.44;99927.81;16121968;19;131372;-58
2022/12/23 15:13:01;;;;;;;17.10;1.80;;;;;;;20.08;46.88;99929.47;16124858;19;129922;-56
2022/12/23 15:18:24;;;;;;;12.15;1.67;;;;;;;20.07;47.03;99945.31;16122831;19;129948;-55
2022/12/23 15:23:49;;;;;;;24.55;2.00;;;;;;;20.10;46.65;99949.47;16122926;19;129433;-57
2022/12/23 15:29:13;;;;;;;10.15;1.40;;;;;;;20.17;46.84;99960.28;16118989;19;129624;-57
2022/12/23 15:34:35;;;;;;;15.38;1.75;;;;;;;20.37;45.77;99973.31;16118023;19;130645;-65
2022/12/23 15:39:57;;;;;;;11.85;1.58;;;;;;;20.59;45.34;99984.91;16118568;19;129459;-59
2022/12/23 15:45:36;;;;;;;14.23;1.30;;;;;;;20.76;44.95;99989.34;16118803;19;129679;-59
2022/12/23 15:51:04;;;;;;;15.38;1.70;;;;;;;20.83;44.52;99997.38;16123304;19;129127;-55
2022/12/23 15:56:30;;;;;;;28.42;2.50;;;;;;;20.83;44.63;100017.66;16121223;19;129952;-62
2022/12/23 16:01:52;;;;;;;19.27;2.60;;;;;;;20.86;44.74;100036.56;16119513;19;129489;-66
2022/12/23 16:07:40;;;;;;;32.20;2.50;;;;;;;20.99;45.03;100039.84;16119734;19;129233;-64
2022/12/23 16:13:02;;;;;;;29.42;2.67;;;;;;;21.12;44.53;100050.38;16124225;19;129617;-67
2022/12/23 16:18:31;;;;;;;35.45;3.22;;;;;;;21.26;44.30;100063.66;16133425;19;129652;-67
2022/12/23 16:23:54;;;;;;;25.67;2.90;;;;;;;21.33;43.96;100070.59;16135484;19;129518;-68
2022/12/23 16:29:15;;;;;;;23.98;3.45;;;;;;;21.40;43.86;100075.84;16133619;19;129583;-65
2022/12/23 16:34:37;;;;;;;20.00;3.13;;;;;;;21.45;43.59;100081.34;16137472;19;129593;-71
2022/12/23 16:40:01;;;;;;;21.88;3.42;;;;;;;21.48;43.12;100091.91;16134178;19;129741;-70
2022/12/23 16:45:23;;;;;;;20.85;2.67;;;;;;;21.46;43.20;100090.56;16130796;19;130048;-70
2022/12/23 16:50:45;;;;;;;18.17;3.30;;;;;;;21.42;43.43;100090.28;16139068;19;129931;-66
2022/12/23 16:56:12;;;;;;;23.65;3.35;;;;;;;21.41;43.78;100104.47;16144193;19;129207;-70
2022/12/23 17:01:40;;;;;;;13.18;2.03;;;;;;;21.44;43.78;100115.88;16133666;19;133070;-61
2022/12/23 17:07:08;;;;;;;18.00;3.97;;;;;;;21.45;43.84;100106.41;16133764;19;129783;-60
2022/12/23 17:12:29;;;;;;;16.27;3.80;;;;;;;21.43;44.08;100124.50;16131148;19;133194;-60
2022/12/23 17:17:52;;;;;;;17.40;3.25;;;;;;;21.36;44.13;100124.81;16132840;19;129517;-60
2022/12/23 17:23:25;;;;;;;20.67;3.55;;;;;;;21.30;44.15;100126.78;16130718;19;130473;-62
2022/12/23 17:28:47;;;;;;;18.67;3.45;;;;;;;21.21;44.47;100134.06;16128737;19;130123;-61
2022/12/23 17:34:20;;;;;;;16.63;3.25;;;;;;;21.20;44.84;100144.34;16128747;19;130919;-61
2022/12/23 17:39:43;;;;;;;22.75;3.38;;;;;;;21.15;44.91;100147.16;16133161;19;129556;-57
2022/12/23 17:45:16;;;;;;;18.92;3.47;;;;;;;21.11;44.83;100161.91;16130069;19;130240;-55
2022/12/23 17:50:39;;;;;;;27.90;3.70;;;;;;;21.07;44.99;100175.50;16132778;19;129733;-56
2022/12/23 17:56:02;;;;;;;33.55;3.97;;;;;;;21.04;45.26;100190.00;16129257;19;130669;-54
2022/12/23 18:01:25;;;;;;;30.17;4.05;;;;;;;21.01;45.17;100176.66;16128226;19;129203;-56
2022/12/23 18:06:47;;;;;;;26.85;4.47;;;;;;;20.95;44.98;100191.66;16125991;19;129591;-57
2022/12/23 18:12:32;;;;;;;32.00;5.13;;;;;;;20.86;45.00;100191.44;16123005;19;129620;-54
2022/12/23 18:17:55;;;;;;;26.50;5.35;;;;;;;20.76;44.97;100189.47;16125092;19;130533;-56
2022/12/23 18:23:25;;;;;;;27.70;4.45;;;;;;;20.68;44.81;100195.53;16128795;19;129842;-56
2022/12/23 18:28:47;;;;;;;23.63;4.35;;;;;;;20.59;44.87;100203.63;16126021;19;129891;-54
2022/12/23 18:34:16;;;;;;;30.20;4.77;;;;;;;20.49;45.01;100211.97;16122637;19;129691;-56
2022/12/23 18:39:38;;;;;;;21.77;4.03;;;;;;;20.40;45.11;100215.25;16125656;19;129575;-57
2022/12/23 18:45:00;;;;;;;23.42;3.88;;;;;;;20.31;44.64;100216.09;16126451;19;136080;-55
2022/12/23 18:50:22;;;;;;;29.13;5.28;;;;;;;20.22;44.51;100216.63;16122439;19;129511;-58
2022/12/23 18:55:44;;;;;;;34.72;4.95;;;;;;;20.19;44.78;100208.84;16124559;19;129622;-57
2022/12/23 19:01:10;;;;;;;63.42;7.65;;;;;;;20.15;44.61;100218.84;16123256;19;129431;-52
2022/12/23 19:06:32;;;;;;;40.10;5.68;;;;;;;20.13;44.17;100230.19;16120532;19;129761;-56
2022/12/23 19:11:54;;;;;;;40.30;6.53;;;;;;;20.12;44.38;100236.88;16123518;19;129451;-58
2022/12/23 19:17:16;;;;;;;29.58;4.88;;;;;;;20.15;43.78;100243.84;16120723;19;129618;-56
2022/12/23 19:22:38;;;;;;;33.00;4.60;;;;;;;20.15;44.27;100268.81;16121406;19;130342;-60
2022/12/23 19:28:00;;;;;;;20.35;3.63;;;;;;;20.18;44.61;100271.06;16120757;19;130039;-58
2022/12/23 19:33:22;;;;;;;29.00;4.80;;;;;;;20.21;44.82;100275.22;16118621;19;129175;-58
2022/12/23 19:38:44;;;;;;;23.63;3.92;;;;;;;20.22;45.14;100291.63;16122184;19;129298;-59
2022/12/23 19:44:06;;;;;;;47.08;4.63;;;;;;;20.21;45.25;100305.78;16122252;19;130222;-58
2022/12/23 19:49:27;;;;;;;31.95;4.35;;;;;;;20.33;45.59;100316.63;16124841;19;129844;-58
2022/12/23 19:54:51;;;;;;;20.90;3.08;;;;;;;20.55;45.66;100336.72;16138822;19;130787;-58
2022/12/23 20:00:14;;;;;;;15.35;2.75;;;;;;;20.83;45.51;100340.13;16136493;19;130124;-59
2022/12/23 20:05:36;;;;;;;14.45;2.67;;;;;;;21.10;45.32;100360.47;16132212;19;129554;-59
2022/12/23 20:11:10;;;;;;;17.95;3.75;;;;;;;21.32;44.95;100368.53;16136397;19;129835;-58
2022/12/23 20:16:32;;;;;;;18.23;3.28;;;;;;;21.46;44.77;100379.97;16133999;19;130585;-58
2022/12/23 20:21:54;;;;;;;20.83;3.40;;;;;;;21.55;44.69;100388.59;16135001;19;136038;-56
2022/12/23 20:27:16;;;;;;;22.50;3.03;;;;;;;21.59;44.92;100393.34;16130898;19;129122;-59
2022/12/23 20:32:46;;;;;;;18.30;3.65;;;;;;;21.64;45.36;100409.22;16132583;19;130272;-58
2022/12/23 20:38:08;;;;;;;17.60;3.00;;;;;;;21.71;45.09;100418.09;16138436;19;130448;-59
2022/12/23 20:43:33;;;;;;;9.55;2.60;;;;;;;21.85;45.21;100426.69;16136117;19;130607;-59
2022/12/23 20:48:54;;;;;;;11.83;2.40;;;;;;;21.93;45.35;100440.06;16135794;19;130652;-55
2022/12/23 20:54:16;;;;;;;8.50;1.95;;;;;;;21.94;45.50;100440.91;16133688;19;129542;-58
2022/12/23 20:59:38;;;;;;;12.80;2.75;;;;;;;21.88;45.80;100461.53;16135921;19;129571;-61
2022/12/23 21:05:00;;;;;;;13.68;2.92;;;;;;;21.80;45.98;100469.31;16128288;19;131722;-58
2022/12/23 21:10:21;;;;;;;15.45;3.15;;;;;;;21.70;45.88;100476.84;16132733;19;129431;-60
2022/12/23 21:15:43;;;;;;;19.83;2.67;;;;;;;21.59;46.01;100489.91;16131247;19;130574;-59
2022/12/23 21:21:05;;;;;;;16.13;2.83;;;;;;;21.49;45.78;100491.59;16125077;19;129389;-57
2022/12/23 21:26:29;;;;;;;78.75;6.80;;;;;;;21.39;45.47;100502.69;16128614;19;129750;-58
2022/12/23 21:31:51;;;;;;;36.40;4.25;;;;;;;21.27;45.66;100504.88;16127502;19;130559;-56
2022/12/23 21:37:12;;;;;;;34.28;3.72;;;;;;;21.15;45.77;100503.19;16128366;19;130402;-54
2022/12/23 21:42:34;;;;;;;17.80;3.25;;;;;;;21.09;45.96;100509.00;16128397;19;130001;-53
2022/12/23 21:47:56;;;;;;;22.58;3.75;;;;;;;21.00;45.83;100528.16;16127963;19;129499;-54
2022/12/23 21:53:18;;;;;;;29.33;3.28;;;;;;;20.96;46.12;100543.69;16125863;19;129934;-51
2022/12/23 21:58:40;;;;;;;27.77;3.53;;;;;;;20.84;45.99;100541.97;16119119;19;135179;-59
2022/12/23 22:04:03;;;;;;;21.15;3.38;;;;;;;20.76;45.48;100556.41;16109373;19;130182;-60
2022/12/23 22:09:25;;;;;;;19.15;2.97;;;;;;;20.69;46.03;100573.28;16122831;19;130986;-58
2022/12/23 22:14:46;;;;;;;18.30;2.97;;;;;;;20.64;46.03;100580.78;16121974;19;130899;-55
2022/12/23 22:20:08;;;;;;;19.42;3.05;;;;;;;20.55;46.16;100575.72;16124931;19;131405;-55
2022/12/23 22:25:30;;;;;;;20.70;2.80;;;;;;;20.47;46.07;100597.63;16125990;19;129434;-57
2022/12/23 22:30:52;;;;;;;16.60;2.53;;;;;;;20.39;46.02;100591.44;16126512;19;129630;-54
2022/12/23 22:36:14;;;;;;;15.40;2.47;;;;;;;20.34;45.83;100593.34;16121771;19;129726;-58
2022/12/23 22:41:36;;;;;;;13.57;2.38;;;;;;;20.26;46.17;100601.06;16126709;19;129061;-55
2022/12/23 22:46:58;;;;;;;11.32;2.20;;;;;;;20.21;46.24;100600.19;16123692;19;129813;-57
2022/12/23 22:52:19;;;;;;;12.38;2.30;;;;;;;20.17;45.70;100599.03;16123988;19;134219;-57
2022/12/23 22:57:41;;;;;;;10.40;2.05;;;;;;;20.13;45.72;100609.84;16124611;19;129673;-57
2022/12/23 23:03:03;;;;;;;13.10;2.33;;;;;;;20.08;45.87;100612.56;16123700;19;129457;-55
2022/12/23 23:08:25;;;;;;;11.18;2.03;;;;;;;20.05;46.02;100607.56;16124362;19;129371;-58
2022/12/23 23:13:47;;;;;;;11.57;1.90;;;;;;;20.01;45.79;100625.84;16121675;19;129670;-56
2022/12/23 23:19:10;;;;;;;11.80;2.17;;;;;;;19.96;45.78;100624.66;16105580;19;129625;-58
2022/12/23 23:24:33;;;;;;;11.02;2.00;;;;;;;19.90;46.08;100631.25;16111789;19;130251;-57
2022/12/23 23:29:54;;;;;;;10.23;1.80;;;;;;;19.88;45.95;100640.97;16125821;19;132079;-57
2022/12/23 23:35:16;;;;;;;7.95;2.15;;;;;;;19.85;45.75;100647.84;16135618;19;130615;-57
2022/12/23 23:40:38;;;;;;;7.40;1.77;;;;;;;19.82;45.69;100649.22;16136339;19;129238;-56
2022/12/23 23:46:00;;;;;;;5.22;1.88;;;;;;;19.78;45.91;100658.34;16136880;19;134317;-57
2022/12/23 23:51:22;;;;;;;8.50;2.05;;;;;;;19.76;45.92;100661.34;16135365;19;130045;-58
2022/12/23 23:56:44;;;;;;;9.65;2.42;;;;;;;19.71;45.64;100657.69;16134295;19;129540;-57
